Alice, North Dakota
Current Conditions -  °F | °C
As of 8:15 PM on Sunday 25 Jan 2015 (Local Time) from KGWR Reporting Station
Overcast Overcast  
Wind Chill: -7°   Ceiling: 2400
Heat Index: -1°   Visibility: 10mi
Dew Point: -1°   Wind: 13mph
Humidity: 100%   Direction: 210°SSW
Pressure: 29.93"   Gusts: NA
Location:  46.7681°N, 97.6777°W
Report Text: KGWR 260215Z AUTO 21011KT 10SM OVC024 M01/M01 A2993 RMK A01 P000
Loading
Personal Weather Stations






























Interactive Weather Map New forecast layout! Learn more

10-Day Weather Forecast

Advertisements
Track Severe Weather on mobile